Time;durP1;ratioP1;P1;durP2;ratioP2;P2;SDS_P1;SDS_P2;PMS_P1;PMS_P2;Temp;Humidity;BMP_temperature;BMP_pressure;BME280_temperature;BME280_humidity;BME280_pressure;Samples;Min_cycle;Max_cycle;Signal;HPM_P1;HPM_P2
2023/03/02 00:02:09;;;;;;;;;;;3.30;99.90;;;;;;5050431;28;2086;-65
2023/03/02 00:04:47;;;;;;;;;;;3.30;99.90;;;;;;5051707;28;1746;-63
2023/03/02 00:07:33;;;;;;;;;;;3.30;99.90;;;;;;5051039;28;1630;-65
2023/03/02 00:09:59;;;;;;;;;;;3.30;99.90;;;;;;5052620;28;1930;-65
2023/03/02 00:12:27;;;;;;;;;;;3.30;99.90;;;;;;5050043;28;1610;-65
2023/03/02 00:14:53;;;;;;;;;;;3.20;99.90;;;;;;5055404;28;1800;-64
2023/03/02 00:17:26;;;;;;;;;;;3.20;99.90;;;;;;5051143;28;1723;-65
2023/03/02 00:19:53;;;;;;;;;;;3.20;99.90;;;;;;5055742;28;1955;-64
2023/03/02 00:22:19;;;;;;;;;;;3.20;99.90;;;;;;5054646;28;1791;-64
2023/03/02 00:24:45;;;;;;;;;;;3.30;99.90;;;;;;5055201;28;1970;-64
2023/03/02 00:27:12;;;;;;;;;;;3.20;99.90;;;;;;5052593;28;1964;-65
2023/03/02 00:29:38;;;;;;;;;;;3.30;99.90;;;;;;5055171;28;2034;-64
2023/03/02 00:32:05;;;;;;;;;;;3.30;99.90;;;;;;5054604;28;1867;-65
2023/03/02 00:34:31;;;;;;;;;;;3.10;99.90;;;;;;5054432;28;2075;-65
2023/03/02 00:36:57;;;;;;;;;;;3.30;99.90;;;;;;5053779;28;2054;-65
2023/03/02 00:39:23;;;;;;;;;;;3.20;99.90;;;;;;5052551;28;1987;-64
2023/03/02 00:41:50;;;;;;;;;;;3.20;99.90;;;;;;5054946;28;1704;-64
2023/03/02 00:44:18;;;;;;;;;;;3.00;99.90;;;;;;5059263;28;2044;-65
2023/03/02 00:46:45;;;;;;;;;;;3.00;99.90;;;;;;5053777;28;1652;-65
2023/03/02 00:49:11;;;;;;;;;;;3.00;99.90;;;;;;5054494;28;1995;-65
2023/03/02 00:51:37;;;;;;;;;;;3.10;99.90;;;;;;5048579;28;1730;-65
2023/03/02 00:54:04;;;;;;;;;;;3.10;99.90;;;;;;5053929;28;1751;-63
2023/03/02 00:56:30;;;;;;;;;;;3.10;99.90;;;;;;5053421;28;1671;-64
2023/03/02 00:58:56;;;;;;;;;;;3.20;99.90;;;;;;5049886;28;1988;-64
2023/03/02 01:01:22;;;;;;;;;;;3.10;99.90;;;;;;5054839;28;1695;-65
2023/03/02 01:03:48;;;;;;;;;;;3.10;99.90;;;;;;5050752;28;1699;-62
2023/03/02 01:06:16;;;;;;;;;;;3.00;99.90;;;;;;5052281;28;1977;-63
2023/03/02 01:08:42;;;;;;;;;;;3.10;99.90;;;;;;5053634;28;2048;-63
2023/03/02 01:11:12;;;;;;;;;;;3.20;99.90;;;;;;5047189;28;2555;-63
2023/03/02 01:13:38;;;;;;;;;;;3.00;99.90;;;;;;5048854;28;2010;-61
2023/03/02 01:16:04;;;;;;;;;;;3.00;99.90;;;;;;5052591;28;2225;-62
2023/03/02 01:18:31;;;;;;;;;;;3.00;99.90;;;;;;5053941;28;1929;-63
2023/03/02 01:21:04;;;;;;;;;;;3.10;99.90;;;;;;5053897;28;1663;-63
2023/03/02 01:23:31;;;;;;;;;;;3.10;99.90;;;;;;5054109;28;1636;-63
2023/03/02 01:25:57;;;;;;;;;;;3.20;99.90;;;;;;5052545;28;1572;-61
2023/03/02 01:28:23;;;;;;;;;;;3.20;99.90;;;;;;5053666;28;1766;-62
2023/03/02 01:30:49;;;;;;;;;;;3.10;99.90;;;;;;5054032;28;1693;-62
2023/03/02 01:33:16;;;;;;;;;;;3.10;99.90;;;;;;5053675;28;1982;-62
2023/03/02 01:35:45;;;;;;;;;;;3.00;99.90;;;;;;5075100;28;1605;-62
2023/03/02 01:38:12;;;;;;;;;;;3.00;99.90;;;;;;5048651;28;2147;-62
2023/03/02 01:40:38;;;;;;;;;;;3.00;99.90;;;;;;5049040;28;1949;-62
2023/03/02 01:43:09;;;;;;;;;;;3.00;99.90;;;;;;5048867;28;1999;-62
2023/03/02 01:45:58;;;;;;;;;;;3.00;99.90;;;;;;5052753;28;1830;-64
2023/03/02 01:48:30;;;;;;;;;;;3.00;99.90;;;;;;5048379;28;1794;-64
2023/03/02 01:50:56;;;;;;;;;;;3.10;99.90;;;;;;5050842;28;1575;-64
2023/03/02 01:53:24;;;;;;;;;;;2.90;99.90;;;;;;5053618;28;2015;-64
2023/03/02 01:55:51;;;;;;;;;;;3.00;99.90;;;;;;5052807;28;1617;-62
2023/03/02 01:58:17;;;;;;;;;;;3.00;99.90;;;;;;5052803;28;1678;-61
2023/03/02 02:00:43;;;;;;;;;;;3.00;99.90;;;;;;5053343;28;1973;-61
2023/03/02 02:03:13;;;;;;;;;;;3.00;99.90;;;;;;5050000;28;1663;-64
2023/03/02 02:05:41;;;;;;;;;;;2.90;99.90;;;;;;5052226;28;1711;-63
2023/03/02 02:08:08;;;;;;;;;;;3.00;99.90;;;;;;5050397;28;1714;-65
2023/03/02 02:10:34;;;;;;;;;;;3.10;99.90;;;;;;5048037;28;1561;-65
2023/03/02 02:13:00;;;;;;;;;;;3.00;99.90;;;;;;5052185;28;1765;-65
2023/03/02 02:15:26;;;;;;;;;;;2.90;99.90;;;;;;5052774;28;2056;-64
2023/03/02 02:17:54;;;;;;;;;;;2.90;99.90;;;;;;5051584;28;2057;-64
2023/03/02 02:20:23;;;;;;;;;;;2.90;99.90;;;;;;5046703;28;1980;-65
2023/03/02 02:23:02;;;;;;;;;;;2.80;99.90;;;;;;5057767;28;1826;-64
2023/03/02 02:25:47;;;;;;;;;;;2.80;99.90;;;;;;5051153;28;1549;-64
2023/03/02 02:28:18;;;;;;;;;;;2.70;99.90;;;;;;5056368;28;2071;-63
2023/03/02 02:30:44;;;;;;;;;;;2.70;99.90;;;;;;5056773;28;1648;-64
2023/03/02 02:33:14;;;;;;;;;;;2.80;99.90;;;;;;5056831;28;2016;-61
2023/03/02 02:35:40;;;;;;;;;;;2.70;99.90;;;;;;5052634;28;1709;-63
2023/03/02 02:38:06;;;;;;;;;;;2.60;99.90;;;;;;5054700;28;1914;-65
2023/03/02 02:40:39;;;;;;;;;;;2.60;99.90;;;;;;5064335;28;1968;-65
2023/03/02 02:43:05;;;;;;;;;;;2.70;99.90;;;;;;5054924;28;1873;-65
2023/03/02 02:45:32;;;;;;;;;;;2.60;99.90;;;;;;5056271;28;2061;-65
2023/03/02 02:47:58;;;;;;;;;;;2.50;99.90;;;;;;5053821;28;2068;-65
2023/03/02 02:50:27;;;;;;;;;;;2.60;99.90;;;;;;5056870;28;1876;-64
2023/03/02 02:52:59;;;;;;;;;;;2.70;99.90;;;;;;5056685;28;2288;-63
2023/03/02 02:55:26;;;;;;;;;;;2.70;99.90;;;;;;5055899;28;1834;-65
2023/03/02 02:57:54;;;;;;;;;;;2.70;99.90;;;;;;5050580;28;1945;-65
2023/03/02 03:00:20;;;;;;;;;;;2.60;99.90;;;;;;5053695;28;1972;-65
2023/03/02 03:02:49;;;;;;;;;;;2.60;99.90;;;;;;5054741;28;1792;-64
2023/03/02 03:05:15;;;;;;;;;;;2.60;99.90;;;;;;5053707;28;2014;-64
2023/03/02 03:07:41;;;;;;;;;;;2.60;99.90;;;;;;5056092;28;1774;-65
2023/03/02 03:10:11;;;;;;;;;;;2.60;99.90;;;;;;5053857;28;1753;-65
2023/03/02 03:12:37;;;;;;;;;;;2.60;99.90;;;;;;5053094;28;1977;-64
2023/03/02 03:15:04;;;;;;;;;;;2.80;99.90;;;;;;5054549;28;2066;-65
2023/03/02 03:17:31;;;;;;;;;;;2.70;99.90;;;;;;5053812;28;2054;-65
2023/03/02 03:20:05;;;;;;;;;;;2.70;99.90;;;;;;5055380;28;2096;-65
2023/03/02 03:22:33;;;;;;;;;;;2.70;99.90;;;;;;5054257;28;2088;-65
2023/03/02 03:24:59;;;;;;;;;;;2.60;99.90;;;;;;5055540;28;2042;-63
2023/03/02 03:27:25;;;;;;;;;;;2.60;99.90;;;;;;5050065;28;1685;-63
2023/03/02 03:29:51;;;;;;;;;;;2.50;99.90;;;;;;5056408;28;1367;-65
2023/03/02 03:32:18;;;;;;;;;;;2.40;99.90;;;;;;5054295;28;1614;-64
2023/03/02 03:34:44;;;;;;;;;;;2.40;99.90;;;;;;5055953;28;1633;-65
2023/03/02 03:37:12;;;;;;;;;;;2.30;99.90;;;;;;5054272;28;1618;-65
2023/03/02 03:39:39;;;;;;;;;;;2.30;99.90;;;;;;5054550;28;1934;-64
2023/03/02 03:42:05;;;;;;;;;;;2.40;99.90;;;;;;5054909;28;1545;-65
2023/03/02 03:44:31;;;;;;;;;;;2.40;99.90;;;;;;5055951;28;2020;-64
2023/03/02 03:46:58;;;;;;;;;;;2.40;99.90;;;;;;5054149;28;1637;-65
2023/03/02 03:49:25;;;;;;;;;;;2.30;99.90;;;;;;5055923;28;1744;-65
2023/03/02 03:51:51;;;;;;;;;;;2.40;99.90;;;;;;5056186;28;1885;-64
2023/03/02 03:54:17;;;;;;;;;;;2.30;99.90;;;;;;5055506;28;2126;-65
2023/03/02 03:56:45;;;;;;;;;;;2.40;99.90;;;;;;5054649;28;2591;-65
2023/03/02 03:59:13;;;;;;;;;;;2.40;99.90;;;;;;5052150;28;1988;-64
2023/03/02 04:01:44;;;;;;;;;;;2.30;99.90;;;;;;5057765;28;2056;-65
2023/03/02 04:04:12;;;;;;;;;;;2.30;99.90;;;;;;5049044;28;2037;-65
2023/03/02 04:06:39;;;;;;;;;;;2.30;99.90;;;;;;5052312;28;1617;-63
2023/03/02 04:09:06;;;;;;;;;;;2.20;99.90;;;;;;5051228;28;1976;-64
2023/03/02 04:11:32;;;;;;;;;;;2.30;99.90;;;;;;5053488;28;1627;-65
2023/03/02 04:13:59;;;;;;;;;;;2.20;99.90;;;;;;5052459;28;1946;-65
2023/03/02 04:16:25;;;;;;;;;;;2.20;99.90;;;;;;5054490;28;1807;-65
2023/03/02 04:18:51;;;;;;;;;;;2.10;99.90;;;;;;5047740;28;1877;-64
2023/03/02 04:21:17;;;;;;;;;;;2.20;99.90;;;;;;5054936;28;2119;-65
2023/03/02 04:23:43;;;;;;;;;;;2.10;99.90;;;;;;5048982;28;1692;-65
2023/03/02 04:26:09;;;;;;;;;;;2.10;99.90;;;;;;5053494;28;2307;-64
2023/03/02 04:28:36;;;;;;;;;;;2.30;99.90;;;;;;5054936;28;1788;-65
2023/03/02 04:31:02;;;;;;;;;;;2.20;99.90;;;;;;5054359;28;2030;-64
2023/03/02 04:33:28;;;;;;;;;;;2.10;99.90;;;;;;5053984;28;1871;-62
2023/03/02 04:35:54;;;;;;;;;;;2.00;99.90;;;;;;5053530;28;1611;-62
2023/03/02 04:38:21;;;;;;;;;;;2.10;99.90;;;;;;5051496;28;1693;-62
2023/03/02 04:40:47;;;;;;;;;;;2.10;99.90;;;;;;5054666;28;1906;-65
2023/03/02 04:43:13;;;;;;;;;;;2.00;99.90;;;;;;5042776;28;1979;-65
2023/03/02 04:45:39;;;;;;;;;;;2.00;99.90;;;;;;5053873;28;1679;-64
2023/03/02 04:48:06;;;;;;;;;;;1.90;99.90;;;;;;5053210;28;2007;-65
2023/03/02 04:50:32;;;;;;;;;;;1.90;99.90;;;;;;5051407;28;1997;-65
2023/03/02 04:52:58;;;;;;;;;;;1.90;99.90;;;;;;5053176;28;2136;-65
2023/03/02 04:55:25;;;;;;;;;;;2.00;99.90;;;;;;5053694;28;1788;-62
2023/03/02 04:57:51;;;;;;;;;;;1.90;99.90;;;;;;5054113;28;2066;-65
2023/03/02 05:00:19;;;;;;;;;;;2.00;99.90;;;;;;5053448;28;2003;-62
2023/03/02 05:02:45;;;;;;;;;;;2.00;99.90;;;;;;5052903;28;1744;-63
2023/03/02 05:05:14;;;;;;;;;;;2.00;99.90;;;;;;5052564;28;2038;-63
2023/03/02 05:07:40;;;;;;;;;;;2.20;99.90;;;;;;5053294;28;1394;-64
2023/03/02 05:10:06;;;;;;;;;;;2.10;99.90;;;;;;5053768;28;1982;-65
2023/03/02 05:12:53;;;;;;;;;;;2.10;99.90;;;;;;5054359;28;1805;-65
2023/03/02 05:15:20;;;;;;;;;;;2.10;99.90;;;;;;5048757;28;1741;-64
2023/03/02 05:17:46;;;;;;;;;;;2.00;99.90;;;;;;5053897;28;1674;-64
2023/03/02 05:20:13;;;;;;;;;;;2.00;99.90;;;;;;5054168;28;2062;-64
2023/03/02 05:22:39;;;;;;;;;;;1.90;99.90;;;;;;5053642;28;2030;-64
2023/03/02 05:25:05;;;;;;;;;;;1.90;99.90;;;;;;5053498;28;2451;-65
2023/03/02 05:27:31;;;;;;;;;;;1.90;99.90;;;;;;5052642;28;2053;-64
2023/03/02 05:29:58;;;;;;;;;;;2.00;99.90;;;;;;5050646;28;1970;-65
2023/03/02 05:32:24;;;;;;;;;;;1.90;99.90;;;;;;5053729;28;1736;-64
2023/03/02 05:34:50;;;;;;;;;;;2.00;99.90;;;;;;5054026;28;1577;-64
2023/03/02 05:37:16;;;;;;;;;;;2.10;99.90;;;;;;5052017;28;2052;-63
2023/03/02 05:39:42;;;;;;;;;;;2.00;99.90;;;;;;5069213;28;1915;-64
2023/03/02 05:42:09;;;;;;;;;;;1.90;99.90;;;;;;5053390;28;1674;-63
2023/03/02 05:44:35;;;;;;;;;;;1.90;99.90;;;;;;5046998;28;1995;-64
2023/03/02 05:47:01;;;;;;;;;;;1.80;99.90;;;;;;5054476;28;2085;-64
2023/03/02 05:49:27;;;;;;;;;;;1.80;99.90;;;;;;5050087;28;1601;-64
2023/03/02 05:51:53;;;;;;;;;;;1.80;99.90;;;;;;5053469;28;1917;-62
2023/03/02 05:54:19;;;;;;;;;;;2.00;99.90;;;;;;5053669;28;1596;-63
2023/03/02 05:56:45;;;;;;;;;;;2.00;99.90;;;;;;5050820;28;1552;-64
2023/03/02 05:59:11;;;;;;;;;;;2.50;99.90;;;;;;5044108;28;1872;-64
2023/03/02 06:01:38;;;;;;;;;;;2.00;99.90;;;;;;5050265;28;2039;-65
2023/03/02 06:04:04;;;;;;;;;;;1.90;99.90;;;;;;5051424;28;1897;-64
2023/03/02 06:06:31;;;;;;;;;;;1.90;99.90;;;;;;5062262;28;1768;-64
2023/03/02 06:08:57;;;;;;;;;;;2.00;99.90;;;;;;5052536;28;1830;-64
2023/03/02 06:11:23;;;;;;;;;;;2.00;99.90;;;;;;5051084;28;2814;-64
2023/03/02 06:13:49;;;;;;;;;;;2.00;99.90;;;;;;5053143;28;1902;-64
2023/03/02 06:16:15;;;;;;;;;;;2.00;99.90;;;;;;5050631;28;2025;-63
2023/03/02 06:18:41;;;;;;;;;;;1.90;99.90;;;;;;5052301;28;1815;-63
2023/03/02 06:21:07;;;;;;;;;;;1.90;99.90;;;;;;5044182;28;1969;-64
2023/03/02 06:23:34;;;;;;;;;;;2.00;99.90;;;;;;5043137;28;1785;-64
2023/03/02 06:26:05;;;;;;;;;;;1.90;99.90;;;;;;5051885;28;1786;-64
2023/03/02 06:28:32;;;;;;;;;;;1.80;99.90;;;;;;5053121;28;1711;-64
2023/03/02 06:30:59;;;;;;;;;;;1.80;99.90;;;;;;5039988;28;2077;-62
2023/03/02 06:33:25;;;;;;;;;;;1.70;99.90;;;;;;5052118;28;2689;-64
2023/03/02 06:35:51;;;;;;;;;;;1.80;99.90;;;;;;5052172;28;1614;-64
2023/03/02 06:38:17;;;;;;;;;;;1.80;99.90;;;;;;5051706;28;2150;-64
2023/03/02 06:40:44;;;;;;;;;;;1.90;99.90;;;;;;5049642;28;1977;-65
2023/03/02 06:43:10;;;;;;;;;;;1.70;99.90;;;;;;5052507;28;2056;-64
2023/03/02 06:45:36;;;;;;;;;;;1.70;99.90;;;;;;5051845;28;1712;-64
2023/03/02 06:48:03;;;;;;;;;;;1.60;99.90;;;;;;5052748;28;1972;-64
2023/03/02 06:50:29;;;;;;;;;;;1.60;99.90;;;;;;5055780;28;2584;-64
2023/03/02 06:52:55;;;;;;;;;;;1.70;99.90;;;;;;5054398;28;2120;-62
2023/03/02 06:55:22;;;;;;;;;;;1.80;99.90;;;;;;5050683;28;1713;-64
2023/03/02 06:57:48;;;;;;;;;;;1.80;99.90;;;;;;5051653;28;1953;-64
2023/03/02 07:00:23;;;;;;;;;;;1.80;99.90;;;;;;5051813;28;2117;-64
2023/03/02 07:02:50;;;;;;;;;;;1.80;99.90;;;;;;5052768;28;2605;-64
2023/03/02 07:05:17;;;;;;;;;;;1.80;99.90;;;;;;5051722;28;2049;-61
2023/03/02 07:07:43;;;;;;;;;;;1.80;99.90;;;;;;5052881;28;1586;-66
2023/03/02 07:10:11;;;;;;;;;;;1.80;99.90;;;;;;5052837;28;2019;-64
2023/03/02 07:12:37;;;;;;;;;;;1.80;99.90;;;;;;5051783;28;1606;-64
2023/03/02 07:15:04;;;;;;;;;;;1.70;99.90;;;;;;5054036;28;1738;-65
2023/03/02 07:17:32;;;;;;;;;;;1.70;99.90;;;;;;5053655;28;1412;-65
2023/03/02 07:19:58;;;;;;;;;;;1.70;99.90;;;;;;5054585;28;1946;-65
2023/03/02 07:22:24;;;;;;;;;;;1.60;99.90;;;;;;5054493;28;1974;-65
2023/03/02 07:24:50;;;;;;;;;;;1.60;99.90;;;;;;5051221;28;1987;-63
2023/03/02 07:27:17;;;;;;;;;;;1.60;99.90;;;;;;5055907;28;2086;-63
2023/03/02 07:29:43;;;;;;;;;;;1.70;99.90;;;;;;5055177;28;1752;-64
2023/03/02 07:32:09;;;;;;;;;;;1.70;99.90;;;;;;5049830;28;2072;-63
2023/03/02 07:34:35;;;;;;;;;;;1.60;99.90;;;;;;5045147;28;2041;-63
2023/03/02 07:37:02;;;;;;;;;;;1.70;99.90;;;;;;5049276;28;2023;-63
2023/03/02 07:39:28;;;;;;;;;;;1.60;99.90;;;;;;5049555;28;1890;-64
2023/03/02 07:41:58;;;;;;;;;;;1.70;99.90;;;;;;5047738;28;1980;-63
2023/03/02 07:44:25;;;;;;;;;;;1.80;99.90;;;;;;5051346;28;1959;-64
2023/03/02 07:46:51;;;;;;;;;;;1.80;99.90;;;;;;5054760;28;1509;-63
2023/03/02 07:49:18;;;;;;;;;;;1.70;99.90;;;;;;5051135;28;2176;-62
2023/03/02 07:51:44;;;;;;;;;;;1.70;99.90;;;;;;5052091;28;1581;-64
2023/03/02 07:54:11;;;;;;;;;;;1.80;99.90;;;;;;5056624;28;2156;-64
2023/03/02 07:56:37;;;;;;;;;;;1.70;99.90;;;;;;5056206;28;2039;-63
2023/03/02 07:59:03;;;;;;;;;;;1.80;99.90;;;;;;5054846;28;2307;-64
2023/03/02 08:01:29;;;;;;;;;;;1.90;99.90;;;;;;5055350;28;2018;-63
2023/03/02 08:03:55;;;;;;;;;;;1.90;99.90;;;;;;5051775;28;2035;-62
2023/03/02 08:06:22;;;;;;;;;;;1.90;99.90;;;;;;5051495;28;2146;-64
2023/03/02 08:08:48;;;;;;;;;;;1.90;99.90;;;;;;5055703;28;2057;-65
2023/03/02 08:11:15;;;;;;;;;;;1.90;99.90;;;;;;5052763;28;1626;-63
2023/03/02 08:13:42;;;;;;;;;;;1.90;99.90;;;;;;5052406;28;1587;-64
2023/03/02 08:16:08;;;;;;;;;;;1.90;99.90;;;;;;5052531;28;2192;-63
2023/03/02 08:18:35;;;;;;;;;;;2.00;99.90;;;;;;5052754;28;1619;-64
2023/03/02 08:21:02;;;;;;;;;;;2.00;99.90;;;;;;5053104;28;1969;-63
2023/03/02 08:23:28;;;;;;;;;;;2.00;99.90;;;;;;5054777;28;1626;-63
2023/03/02 08:25:54;;;;;;;;;;;2.00;99.90;;;;;;5050492;28;1594;-62
2023/03/02 08:28:21;;;;;;;;;;;2.00;99.90;;;;;;5043476;28;1964;-63
2023/03/02 08:30:55;;;;;;;;;;;2.00;99.90;;;;;;5055755;28;1674;-63
2023/03/02 08:33:21;;;;;;;;;;;2.10;99.90;;;;;;5049675;28;1624;-63
2023/03/02 08:35:54;;;;;;;;;;;2.10;99.90;;;;;;5055024;28;1686;-64
2023/03/02 08:38:21;;;;;;;;;;;2.10;99.90;;;;;;5055274;28;2075;-64
2023/03/02 08:40:47;;;;;;;;;;;2.00;99.90;;;;;;5045294;28;1902;-63
2023/03/02 08:43:13;;;;;;;;;;;2.00;99.90;;;;;;5053690;28;2115;-64
2023/03/02 08:45:39;;;;;;;;;;;2.10;99.90;;;;;;5051104;28;1563;-63
2023/03/02 08:48:05;;;;;;;;;;;2.10;99.90;;;;;;5054368;28;1680;-63
2023/03/02 08:50:31;;;;;;;;;;;2.10;99.90;;;;;;5055308;28;1628;-62
2023/03/02 08:52:57;;;;;;;;;;;2.20;99.90;;;;;;5054474;28;2263;-64
2023/03/02 08:55:24;;;;;;;;;;;2.30;99.90;;;;;;5053671;28;1549;-64
2023/03/02 08:57:50;;;;;;;;;;;2.30;99.90;;;;;;5053704;28;1716;-64
2023/03/02 09:00:17;;;;;;;;;;;2.30;99.90;;;;;;5049026;28;1977;-64
2023/03/02 09:02:43;;;;;;;;;;;2.30;99.90;;;;;;5051816;28;1749;-64
2023/03/02 09:05:11;;;;;;;;;;;2.30;99.90;;;;;;5050149;28;2050;-64
2023/03/02 09:07:37;;;;;;;;;;;2.20;99.90;;;;;;5051758;28;1874;-64
2023/03/02 09:10:03;;;;;;;;;;;2.20;99.90;;;;;;5043866;28;1777;-64
2023/03/02 09:12:29;;;;;;;;;;;2.40;99.90;;;;;;5042938;28;1810;-64
2023/03/02 09:14:55;;;;;;;;;;;2.40;99.90;;;;;;5053637;28;1557;-61
2023/03/02 09:17:21;;;;;;;;;;;2.30;99.90;;;;;;5050205;28;1684;-64
2023/03/02 09:19:48;;;;;;;;;;;2.40;99.90;;;;;;5053688;28;2032;-64
2023/03/02 09:22:14;;;;;;;;;;;2.40;99.90;;;;;;5049830;28;1981;-63
2023/03/02 09:24:40;;;;;;;;;;;2.50;99.90;;;;;;5054492;28;1619;-63
2023/03/02 09:27:06;;;;;;;;;;;2.50;99.90;;;;;;5054096;28;1636;-63
2023/03/02 09:29:32;;;;;;;;;;;2.50;99.90;;;;;;5053388;28;1955;-65
2023/03/02 09:31:58;;;;;;;;;;;2.50;99.90;;;;;;5053429;28;1981;-63
2023/03/02 09:34:24;;;;;;;;;;;2.60;99.90;;;;;;5054512;28;2030;-63
2023/03/02 09:36:51;;;;;;;;;;;2.70;99.90;;;;;;5052896;28;2100;-64
2023/03/02 09:39:18;;;;;;;;;;;2.70;99.90;;;;;;5049899;28;2071;-63
2023/03/02 09:41:53;;;;;;;;;;;2.70;99.90;;;;;;5048737;28;1906;-63
2023/03/02 09:44:46;;;;;;;;;;;2.80;99.90;;;;;;5045664;28;1660;-63
2023/03/02 09:47:15;;;;;;;;;;;2.80;99.90;;;;;;5052123;28;2015;-63
2023/03/02 09:49:44;;;;;;;;;;;2.80;99.90;;;;;;5048626;28;1800;-63
2023/03/02 09:52:31;;;;;;;;;;;3.00;99.90;;;;;;5051281;28;1688;-64
2023/03/02 09:55:14;;;;;;;;;;;3.10;99.90;;;;;;5047499;28;1585;-64
2023/03/02 09:57:40;;;;;;;;;;;3.20;99.90;;;;;;5052672;28;1678;-64
2023/03/02 10:00:25;;;;;;;;;;;3.30;99.90;;;;;;5049513;28;2228;-63
2023/03/02 10:02:53;;;;;;;;;;;3.20;99.90;;;;;;5050508;28;2011;-64
2023/03/02 10:05:20;;;;;;;;;;;3.40;99.90;;;;;;5049273;28;2041;-63
2023/03/02 10:07:47;;;;;;;;;;;3.50;99.90;;;;;;5052329;28;2055;-64
2023/03/02 10:10:24;;;;;;;;;;;3.50;99.90;;;;;;5052245;28;2357;-64
2023/03/02 10:13:08;;;;;;;;;;;3.40;99.90;;;;;;5053358;28;2010;-64
2023/03/02 10:15:46;;;;;;;;;;;3.50;99.90;;;;;;5048370;28;1579;-64
2023/03/02 10:18:42;;;;;;;;;;;3.60;99.90;;;;;;5048950;28;2021;-64
2023/03/02 10:21:11;;;;;;;;;;;3.70;99.90;;;;;;5039803;28;1902;-64
2023/03/02 10:23:41;;;;;;;;;;;3.80;99.90;;;;;;5050832;28;1644;-64
2023/03/02 10:26:26;;;;;;;;;;;3.90;99.90;;;;;;5046833;28;1501;-64
2023/03/02 10:28:56;;;;;;;;;;;4.00;99.90;;;;;;5049727;28;1959;-63
2023/03/02 10:31:27;;;;;;;;;;;4.00;99.90;;;;;;5049068;28;1777;-61
2023/03/02 10:33:54;;;;;;;;;;;4.00;99.90;;;;;;5052119;28;1676;-63
2023/03/02 10:36:21;;;;;;;;;;;4.10;99.90;;;;;;5050593;28;1703;-63
2023/03/02 10:38:48;;;;;;;;;;;4.10;99.90;;;;;;5051244;28;1730;-63
2023/03/02 10:41:16;;;;;;;;;;;4.30;99.90;;;;;;5052187;28;2077;-63
2023/03/02 10:44:04;;;;;;;;;;;4.30;99.90;;;;;;5057920;28;1773;-63
2023/03/02 10:46:41;;;;;;;;;;;4.30;99.90;;;;;;5053557;28;1611;-64
2023/03/02 10:49:23;;;;;;;;;;;4.30;99.90;;;;;;5058115;28;1981;-64
2023/03/02 10:51:56;;;;;;;;;;;4.40;99.90;;;;;;5054895;28;1582;-62
2023/03/02 10:54:24;;;;;;;;;;;4.50;99.90;;;;;;5049284;28;1661;-64
2023/03/02 10:56:52;;;;;;;;;;;4.50;99.90;;;;;;5056264;28;1922;-64
2023/03/02 10:59:24;;;;;;;;;;;4.60;99.90;;;;;;5053845;28;1473;-63
2023/03/02 11:02:22;;;;;;;;;;;4.60;99.90;;;;;;5056991;28;1898;-63
2023/03/02 11:04:52;;;;;;;;;;;4.60;99.90;;;;;;5050114;28;1794;-64
2023/03/02 11:07:22;;;;;;;;;;;4.50;99.90;;;;;;5052301;28;2898;-64
2023/03/02 11:09:58;;;;;;;;;;;4.50;99.90;;;;;;5051786;28;1793;-64
2023/03/02 11:12:25;;;;;;;;;;;4.40;99.90;;;;;;5056135;28;1905;-64
2023/03/02 11:15:20;;;;;;;;;;;4.40;99.90;;;;;;5056900;28;1965;-63
2023/03/02 11:17:51;;;;;;;;;;;4.50;99.90;;;;;;5051114;28;1546;-63
2023/03/02 11:20:22;;;;;;;;;;;4.60;99.90;;;;;;5058263;28;1439;-63
2023/03/02 11:22:55;;;;;;;;;;;4.70;99.90;;;;;;5056151;28;1988;-63
2023/03/02 11:25:29;;;;;;;;;;;4.80;99.90;;;;;;5056488;28;1707;-64
2023/03/02 11:28:02;;;;;;;;;;;4.80;99.90;;;;;;5055472;28;1596;-64
2023/03/02 11:30:31;;;;;;;;;;;5.10;99.90;;;;;;5049326;28;1775;-64
2023/03/02 11:33:01;;;;;;;;;;;5.30;99.90;;;;;;5056808;28;1946;-64
2023/03/02 11:35:30;;;;;;;;;;;5.30;99.90;;;;;;5056407;28;1731;-64
2023/03/02 11:38:00;;;;;;;;;;;5.40;99.90;;;;;;5055179;28;1744;-64
2023/03/02 11:40:35;;;;;;;;;;;5.40;99.90;;;;;;5053750;28;1713;-63
2023/03/02 11:43:04;;;;;;;;;;;5.50;99.90;;;;;;5052793;28;2311;-64
2023/03/02 11:45:35;;;;;;;;;;;5.60;99.90;;;;;;5053417;28;1600;-64
2023/03/02 11:48:05;;;;;;;;;;;5.70;99.90;;;;;;5054324;28;1744;-64
2023/03/02 11:50:32;;;;;;;;;;;5.80;99.90;;;;;;5050468;28;1624;-64
2023/03/02 11:53:00;;;;;;;;;;;5.80;99.90;;;;;;5046759;28;1652;-63
2023/03/02 11:55:28;;;;;;;;;;;5.90;99.90;;;;;;5047898;28;1894;-63
2023/03/02 11:57:58;;;;;;;;;;;6.00;99.90;;;;;;5054874;28;1475;-64
2023/03/02 12:00:32;;;;;;;;;;;6.10;99.90;;;;;;5053297;28;1916;-65
2023/03/02 12:02:58;;;;;;;;;;;6.20;99.90;;;;;;5053187;28;1910;-64
2023/03/02 12:05:26;;;;;;;;;;;6.30;99.90;;;;;;5055597;28;1684;-64
2023/03/02 12:07:56;;;;;;;;;;;6.40;99.90;;;;;;5050576;28;1878;-64
2023/03/02 12:10:27;;;;;;;;;;;6.40;99.90;;;;;;5075623;28;2118;-64
2023/03/02 12:12:59;;;;;;;;;;;6.50;99.90;;;;;;5054175;28;1949;-61
2023/03/02 12:15:28;;;;;;;;;;;6.50;99.90;;;;;;5056030;28;2042;-64
2023/03/02 12:17:54;;;;;;;;;;;6.50;99.90;;;;;;5049759;28;2067;-62
2023/03/02 12:20:20;;;;;;;;;;;6.60;99.90;;;;;;5055620;28;1657;-64
2023/03/02 12:22:46;;;;;;;;;;;6.70;99.90;;;;;;5051999;28;1973;-63
2023/03/02 12:25:18;;;;;;;;;;;6.70;99.90;;;;;;5048963;28;1921;-64
2023/03/02 12:27:49;;;;;;;;;;;6.70;99.90;;;;;;5045709;28;1838;-64
2023/03/02 12:30:15;;;;;;;;;;;6.80;99.90;;;;;;5049423;28;1934;-64
2023/03/02 12:32:57;;;;;;;;;;;6.80;99.90;;;;;;5055403;28;1938;-64
2023/03/02 12:35:23;;;;;;;;;;;6.80;99.90;;;;;;5054815;28;1926;-63
2023/03/02 12:37:55;;;;;;;;;;;6.80;99.90;;;;;;5054574;28;1961;-64
2023/03/02 12:40:22;;;;;;;;;;;6.70;99.90;;;;;;5055363;28;1780;-64
2023/03/02 12:43:06;;;;;;;;;;;6.60;99.90;;;;;;5054277;28;2494;-64
2023/03/02 12:45:52;;;;;;;;;;;6.70;99.90;;;;;;5048935;28;2026;-64
2023/03/02 12:48:28;;;;;;;;;;;6.80;99.90;;;;;;5054331;28;2096;-64
2023/03/02 12:50:58;;;;;;;;;;;6.80;99.90;;;;;;5059599;28;1561;-63
2023/03/02 12:53:24;;;;;;;;;;;6.80;99.90;;;;;;5052918;28;1593;-64
2023/03/02 12:55:50;;;;;;;;;;;6.80;99.90;;;;;;5050156;28;1608;-64
2023/03/02 12:58:18;;;;;;;;;;;6.80;99.90;;;;;;5053351;28;2026;-64
2023/03/02 13:00:51;;;;;;;;;;;6.90;99.90;;;;;;5048971;28;1757;-64
2023/03/02 13:03:18;;;;;;;;;;;6.80;99.90;;;;;;5048463;28;1950;-64
2023/03/02 13:05:46;;;;;;;;;;;6.70;99.90;;;;;;5052676;28;1701;-64
2023/03/02 13:08:16;;;;;;;;;;;6.90;99.90;;;;;;5053077;28;1721;-64
2023/03/02 13:10:49;;;;;;;;;;;7.00;99.90;;;;;;5050412;28;1954;-65
2023/03/02 13:13:20;;;;;;;;;;;7.00;99.90;;;;;;5053035;28;1969;-65
2023/03/02 13:15:50;;;;;;;;;;;6.90;99.90;;;;;;5053348;28;1712;-64
2023/03/02 13:18:17;;;;;;;;;;;6.90;99.90;;;;;;5048966;28;2077;-64
2023/03/02 13:20:43;;;;;;;;;;;7.00;99.90;;;;;;5062967;28;1819;-64
2023/03/02 13:23:13;;;;;;;;;;;6.90;99.90;;;;;;5053074;28;1894;-63
2023/03/02 13:25:50;;;;;;;;;;;7.00;99.90;;;;;;5054129;28;1606;-64
2023/03/02 13:28:28;;;;;;;;;;;6.90;99.90;;;;;;5050147;28;2191;-63
2023/03/02 13:30:59;;;;;;;;;;;6.90;99.90;;;;;;5053501;28;1545;-63
2023/03/02 13:33:26;;;;;;;;;;;7.00;99.90;;;;;;5054162;28;1619;-64
2023/03/02 13:35:52;;;;;;;;;;;7.00;99.90;;;;;;5050137;28;2065;-64
2023/03/02 13:38:20;;;;;;;;;;;7.00;99.90;;;;;;5060901;28;2122;-64
2023/03/02 13:40:48;;;;;;;;;;;6.80;99.90;;;;;;5045995;28;1627;-64
2023/03/02 13:43:29;;;;;;;;;;;6.80;99.90;;;;;;5048756;28;2018;-64
2023/03/02 13:45:57;;;;;;;;;;;6.90;99.90;;;;;;5048779;28;1953;-61
2023/03/02 13:48:23;;;;;;;;;;;6.90;99.90;;;;;;5053478;28;1820;-63
2023/03/02 13:50:50;;;;;;;;;;;7.00;99.90;;;;;;5053993;28;1747;-64
2023/03/02 13:53:16;;;;;;;;;;;7.00;99.90;;;;;;5051654;28;2095;-64
2023/03/02 13:55:43;;;;;;;;;;;6.90;99.90;;;;;;5050869;28;1824;-64
2023/03/02 13:58:14;;;;;;;;;;;6.90;99.90;;;;;;5052162;28;1779;-64
2023/03/02 14:00:41;;;;;;;;;;;6.80;99.90;;;;;;5053549;28;1681;-64
2023/03/02 14:03:24;;;;;;;;;;;6.90;99.90;;;;;;5051721;28;1906;-64
2023/03/02 14:05:50;;;;;;;;;;;6.90;99.90;;;;;;5053315;28;1697;-64
2023/03/02 14:08:17;;;;;;;;;;;6.80;99.90;;;;;;5048544;28;2320;-64
2023/03/02 14:10:43;;;;;;;;;;;6.80;99.90;;;;;;5045803;28;1599;-62
2023/03/02 14:13:12;;;;;;;;;;;6.90;99.90;;;;;;5053257;28;1919;-63
2023/03/02 14:15:40;;;;;;;;;;;6.90;99.90;;;;;;5052846;28;1694;-63
2023/03/02 14:18:21;;;;;;;;;;;6.90;99.90;;;;;;5051423;28;1643;-64
2023/03/02 14:20:47;;;;;;;;;;;7.00;99.90;;;;;;5049491;28;1957;-62
2023/03/02 14:23:13;;;;;;;;;;;6.90;99.90;;;;;;5049238;28;2136;-64
2023/03/02 14:25:39;;;;;;;;;;;7.00;99.90;;;;;;5051296;28;1627;-63
2023/03/02 14:28:07;;;;;;;;;;;6.90;99.90;;;;;;5045012;28;1637;-64
2023/03/02 14:30:34;;;;;;;;;;;6.90;99.90;;;;;;5044542;28;1681;-64
2023/03/02 14:33:00;;;;;;;;;;;6.90;99.90;;;;;;5044014;28;1904;-64
2023/03/02 14:35:26;;;;;;;;;;;6.90;99.90;;;;;;5051672;28;1405;-64
2023/03/02 14:37:52;;;;;;;;;;;6.90;99.90;;;;;;5053411;28;1757;-63
2023/03/02 14:40:24;;;;;;;;;;;6.90;99.90;;;;;;5053052;28;1965;-63
2023/03/02 14:42:53;;;;;;;;;;;6.90;99.90;;;;;;5053491;28;2065;-64
2023/03/02 14:45:20;;;;;;;;;;;6.90;99.90;;;;;;5051403;28;2007;-64
2023/03/02 14:47:47;;;;;;;;;;;6.90;99.90;;;;;;5049044;28;2005;-64
2023/03/02 14:50:15;;;;;;;;;;;7.10;99.90;;;;;;5052912;28;2417;-64
2023/03/02 14:52:47;;;;;;;;;;;7.00;99.90;;;;;;5045350;28;1989;-64